sensor_id;sensor_type;location;lat;lon;timestamp;temperature;humidity
24374;DHT22;12498;50.880;12.096;2023-03-14T00:00:18;10.10;99.90
24374;DHT22;12498;50.880;12.096;2023-03-14T00:02:44;10.10;99.90
24374;DHT22;12498;50.880;12.096;2023-03-14T00:05:09;10.00;99.90
24374;DHT22;12498;50.880;12.096;2023-03-14T00:07:35;10.10;99.90
24374;DHT22;12498;50.880;12.096;2023-03-14T00:10:03;10.70;99.90
24374;DHT22;12498;50.880;12.096;2023-03-14T00:12:29;10.10;99.90
24374;DHT22;12498;50.880;12.096;2023-03-14T00:14:55;10.00;99.90
24374;DHT22;12498;50.880;12.096;2023-03-14T00:17:21;10.00;99.90
24374;DHT22;12498;50.880;12.096;2023-03-14T00:19:46;9.90;99.90
24374;DHT22;12498;50.880;12.096;2023-03-14T00:22:11;10.10;99.90
24374;DHT22;12498;50.880;12.096;2023-03-14T00:24:37;9.90;99.90
24374;DHT22;12498;50.880;12.096;2023-03-14T00:27:02;10.00;99.90
24374;DHT22;12498;50.880;12.096;2023-03-14T00:29:28;10.00;99.90
24374;DHT22;12498;50.880;12.096;2023-03-14T00:31:53;10.00;99.90
24374;DHT22;12498;50.880;12.096;2023-03-14T00:34:19;10.10;99.90
24374;DHT22;12498;50.880;12.096;2023-03-14T00:36:44;10.10;99.90
24374;DHT22;12498;50.880;12.096;2023-03-14T00:39:10;10.10;99.90
24374;DHT22;12498;50.880;12.096;2023-03-14T00:41:35;10.20;99.90
24374;DHT22;12498;50.880;12.096;2023-03-14T00:44:01;10.20;99.90
24374;DHT22;12498;50.880;12.096;2023-03-14T00:46:27;10.20;99.90
24374;DHT22;12498;50.880;12.096;2023-03-14T00:48:52;10.30;99.90
24374;DHT22;12498;50.880;12.096;2023-03-14T00:51:18;10.20;99.90
24374;DHT22;12498;50.880;12.096;2023-03-14T00:53:44;10.20;99.90
24374;DHT22;12498;50.880;12.096;2023-03-14T00:56:11;10.30;99.90
24374;DHT22;12498;50.880;12.096;2023-03-14T00:58:37;10.30;99.90
24374;DHT22;12498;50.880;12.096;2023-03-14T01:01:14;10.30;99.90
24374;DHT22;12498;50.880;12.096;2023-03-14T01:03:40;10.30;99.90
24374;DHT22;12498;50.880;12.096;2023-03-14T01:06:16;10.30;99.90
24374;DHT22;12498;50.880;12.096;2023-03-14T01:08:42;10.60;99.90
24374;DHT22;12498;50.880;12.096;2023-03-14T01:11:12;10.50;99.90
24374;DHT22;12498;50.880;12.096;2023-03-14T01:16:06;10.40;99.90
24374;DHT22;12498;50.880;12.096;2023-03-14T01:28:15;10.40;99.90
24374;DHT22;12498;50.880;12.096;2023-03-14T01:30:41;10.30;99.90
24374;DHT22;12498;50.880;12.096;2023-03-14T01:33:06;10.20;99.90
24374;DHT22;12498;50.880;12.096;2023-03-14T01:35:32;10.40;99.90
24374;DHT22;12498;50.880;12.096;2023-03-14T01:37:57;10.30;99.90
24374;DHT22;12498;50.880;12.096;2023-03-14T01:40:23;10.30;99.90
24374;DHT22;12498;50.880;12.096;2023-03-14T01:47:40;10.30;99.90
24374;DHT22;12498;50.880;12.096;2023-03-14T01:50:09;10.10;99.90
24374;DHT22;12498;50.880;12.096;2023-03-14T01:55:14;10.30;99.90
24374;DHT22;12498;50.880;12.096;2023-03-14T02:00:09;10.30;99.90
24374;DHT22;12498;50.880;12.096;2023-03-14T02:02:39;10.30;99.90
24374;DHT22;12498;50.880;12.096;2023-03-14T02:05:05;10.50;99.90
24374;DHT22;12498;50.880;12.096;2023-03-14T02:07:39;10.20;99.90
24374;DHT22;12498;50.880;12.096;2023-03-14T02:10:07;10.50;99.90
24374;DHT22;12498;50.880;12.096;2023-03-14T02:12:33;10.30;99.90
24374;DHT22;12498;50.880;12.096;2023-03-14T02:14:59;10.30;99.90
24374;DHT22;12498;50.880;12.096;2023-03-14T02:17:24;10.40;99.90
24374;DHT22;12498;50.880;12.096;2023-03-14T02:22:30;10.40;99.90
24374;DHT22;12498;50.880;12.096;2023-03-14T02:44:36;10.30;99.90
24374;DHT22;12498;50.880;12.096;2023-03-14T02:47:02;10.30;99.90
24374;DHT22;12498;50.880;12.096;2023-03-14T02:49:28;10.30;99.90
24374;DHT22;12498;50.880;12.096;2023-03-14T02:51:55;10.20;99.90
24374;DHT22;12498;50.880;12.096;2023-03-14T02:56:46;10.30;99.90
24374;DHT22;12498;50.880;12.096;2023-03-14T02:59:12;10.30;99.90
24374;DHT22;12498;50.880;12.096;2023-03-14T03:01:37;10.30;99.90
24374;DHT22;12498;50.880;12.096;2023-03-14T03:04:03;10.40;99.90
24374;DHT22;12498;50.880;12.096;2023-03-14T03:06:28;10.40;99.90
24374;DHT22;12498;50.880;12.096;2023-03-14T03:08:54;10.20;99.90
24374;DHT22;12498;50.880;12.096;2023-03-14T03:11:20;10.40;99.90
24374;DHT22;12498;50.880;12.096;2023-03-14T03:13:46;10.40;99.90
24374;DHT22;12498;50.880;12.096;2023-03-14T03:16:11;11.40;99.90
24374;DHT22;12498;50.880;12.096;2023-03-14T03:21:04;10.40;99.90
24374;DHT22;12498;50.880;12.096;2023-03-14T03:23:30;10.50;99.90
24374;DHT22;12498;50.880;12.096;2023-03-14T03:25:56;10.50;99.90
24374;DHT22;12498;50.880;12.096;2023-03-14T03:28:21;10.50;99.90
24374;DHT22;12498;50.880;12.096;2023-03-14T03:30:47;10.80;99.90
24374;DHT22;12498;50.880;12.096;2023-03-14T03:35:44;10.40;99.90
24374;DHT22;12498;50.880;12.096;2023-03-14T03:38:10;10.40;99.90
24374;DHT22;12498;50.880;12.096;2023-03-14T03:43:02;10.40;99.90
24374;DHT22;12498;50.880;12.096;2023-03-14T03:45:29;10.30;99.90
24374;DHT22;12498;50.880;12.096;2023-03-14T03:47:54;10.20;99.90
24374;DHT22;12498;50.880;12.096;2023-03-14T03:50:20;10.20;99.90
24374;DHT22;12498;50.880;12.096;2023-03-14T03:52:45;10.20;99.90
24374;DHT22;12498;50.880;12.096;2023-03-14T03:55:11;10.40;99.90
24374;DHT22;12498;50.880;12.096;2023-03-14T04:02:30;10.20;99.90
24374;DHT22;12498;50.880;12.096;2023-03-14T04:04:55;10.20;99.90
24374;DHT22;12498;50.880;12.096;2023-03-14T04:07:21;10.30;99.90
24374;DHT22;12498;50.880;12.096;2023-03-14T04:09:46;10.30;99.90
24374;DHT22;12498;50.880;12.096;2023-03-14T04:12:12;10.20;99.90
24374;DHT22;12498;50.880;12.096;2023-03-14T04:14:38;10.30;99.90
24374;DHT22;12498;50.880;12.096;2023-03-14T04:17:04;10.30;99.90
24374;DHT22;12498;50.880;12.096;2023-03-14T04:19:29;10.20;99.90
24374;DHT22;12498;50.880;12.096;2023-03-14T04:21:54;10.20;99.90
24374;DHT22;12498;50.880;12.096;2023-03-14T04:24:20;10.20;99.90
24374;DHT22;12498;50.880;12.096;2023-03-14T04:26:45;10.20;99.90
24374;DHT22;12498;50.880;12.096;2023-03-14T04:29:11;10.20;99.90
24374;DHT22;12498;50.880;12.096;2023-03-14T04:31:37;10.10;99.90
24374;DHT22;12498;50.880;12.096;2023-03-14T04:34:02;10.20;99.90
24374;DHT22;12498;50.880;12.096;2023-03-14T04:36:28;10.20;99.90
24374;DHT22;12498;50.880;12.096;2023-03-14T04:41:19;10.20;99.90
24374;DHT22;12498;50.880;12.096;2023-03-14T04:43:44;10.20;99.90
24374;DHT22;12498;50.880;12.096;2023-03-14T04:46:10;10.20;99.90
24374;DHT22;12498;50.880;12.096;2023-03-14T04:48:35;10.20;99.90
24374;DHT22;12498;50.880;12.096;2023-03-14T04:51:02;10.20;99.90
24374;DHT22;12498;50.880;12.096;2023-03-14T04:53:28;10.10;99.90
24374;DHT22;12498;50.880;12.096;2023-03-14T04:55:54;10.20;99.90
24374;DHT22;12498;50.880;12.096;2023-03-14T05:00:46;10.20;99.90
24374;DHT22;12498;50.880;12.096;2023-03-14T05:05:38;10.20;99.90
24374;DHT22;12498;50.880;12.096;2023-03-14T05:08:03;10.10;99.90
24374;DHT22;12498;50.880;12.096;2023-03-14T05:10:29;10.20;99.90
24374;DHT22;12498;50.880;12.096;2023-03-14T05:12:55;10.20;99.90
24374;DHT22;12498;50.880;12.096;2023-03-14T05:15:20;10.30;99.90
24374;DHT22;12498;50.880;12.096;2023-03-14T05:17:46;10.10;99.90
24374;DHT22;12498;50.880;12.096;2023-03-14T05:20:11;10.10;99.90
24374;DHT22;12498;50.880;12.096;2023-03-14T05:22:38;10.10;99.90
24374;DHT22;12498;50.880;12.096;2023-03-14T05:25:04;10.10;99.90
24374;DHT22;12498;50.880;12.096;2023-03-14T05:27:29;10.10;99.90
24374;DHT22;12498;50.880;12.096;2023-03-14T05:29:55;10.00;99.90
24374;DHT22;12498;50.880;12.096;2023-03-14T05:32:20;10.10;99.90
24374;DHT22;12498;50.880;12.096;2023-03-14T05:34:46;10.10;99.90
24374;DHT22;12498;50.880;12.096;2023-03-14T05:37:11;10.10;99.90
24374;DHT22;12498;50.880;12.096;2023-03-14T05:39:37;10.10;99.90
24374;DHT22;12498;50.880;12.096;2023-03-14T05:42:02;10.00;99.90
24374;DHT22;12498;50.880;12.096;2023-03-14T05:44:28;10.10;99.90
24374;DHT22;12498;50.880;12.096;2023-03-14T05:46:53;10.10;99.90
24374;DHT22;12498;50.880;12.096;2023-03-14T05:49:19;10.10;99.90
24374;DHT22;12498;50.880;12.096;2023-03-14T05:54:13;10.20;99.90
24374;DHT22;12498;50.880;12.096;2023-03-14T05:56:38;10.20;99.90
24374;DHT22;12498;50.880;12.096;2023-03-14T05:59:04;10.40;99.90
24374;DHT22;12498;50.880;12.096;2023-03-14T06:01:29;10.20;99.90
24374;DHT22;12498;50.880;12.096;2023-03-14T06:03:55;10.40;99.90
24374;DHT22;12498;50.880;12.096;2023-03-14T06:08:46;10.40;99.90
24374;DHT22;12498;50.880;12.096;2023-03-14T06:11:12;10.40;99.90
24374;DHT22;12498;50.880;12.096;2023-03-14T06:13:38;10.40;99.90
24374;DHT22;12498;50.880;12.096;2023-03-14T06:16:03;10.30;99.90
24374;DHT22;12498;50.880;12.096;2023-03-14T06:18:29;10.30;99.90
24374;DHT22;12498;50.880;12.096;2023-03-14T06:20:55;10.40;99.90
24374;DHT22;12498;50.880;12.096;2023-03-14T06:23:21;10.50;99.90
24374;DHT22;12498;50.880;12.096;2023-03-14T06:25:46;10.40;99.90
24374;DHT22;12498;50.880;12.096;2023-03-14T06:28:12;10.30;99.90
24374;DHT22;12498;50.880;12.096;2023-03-14T06:30:37;10.50;99.90
24374;DHT22;12498;50.880;12.096;2023-03-14T06:35:29;10.50;99.90
24374;DHT22;12498;50.880;12.096;2023-03-14T06:37:54;10.50;99.90
24374;DHT22;12498;50.880;12.096;2023-03-14T06:40:20;10.50;76.30
24374;DHT22;12498;50.880;12.096;2023-03-14T06:42:46;10.90;72.60
24374;DHT22;12498;50.880;12.096;2023-03-14T06:45:12;10.70;61.20
24374;DHT22;12498;50.880;12.096;2023-03-14T06:47:37;10.60;67.00
24374;DHT22;12498;50.880;12.096;2023-03-14T06:50:06;10.60;54.30
24374;DHT22;12498;50.880;12.096;2023-03-14T06:52:32;10.80;52.80
24374;DHT22;12498;50.880;12.096;2023-03-14T06:54:57;10.60;50.60
24374;DHT22;12498;50.880;12.096;2023-03-14T06:57:23;10.70;45.40
24374;DHT22;12498;50.880;12.096;2023-03-14T06:59:48;10.60;45.00
24374;DHT22;12498;50.880;12.096;2023-03-14T07:02:14;10.60;42.50
24374;DHT22;12498;50.880;12.096;2023-03-14T07:04:39;10.60;38.10
24374;DHT22;12498;50.880;12.096;2023-03-14T07:07:05;10.90;42.00
24374;DHT22;12498;50.880;12.096;2023-03-14T07:09:31;10.90;39.90
24374;DHT22;12498;50.880;12.096;2023-03-14T07:11:57;10.90;42.30
24374;DHT22;12498;50.880;12.096;2023-03-14T07:14:22;11.00;34.20
24374;DHT22;12498;50.880;12.096;2023-03-14T07:16:48;11.00;33.30
24374;DHT22;12498;50.880;12.096;2023-03-14T07:19:14;10.90;26.60
24374;DHT22;12498;50.880;12.096;2023-03-14T07:21:39;11.00;22.50
24374;DHT22;12498;50.880;12.096;2023-03-14T07:24:05;10.80;20.90
24374;DHT22;12498;50.880;12.096;2023-03-14T07:26:30;11.10;18.20
24374;DHT22;12498;50.880;12.096;2023-03-14T07:28:56;11.20;15.90
24374;DHT22;12498;50.880;12.096;2023-03-14T07:31:21;11.20;7.90
24374;DHT22;12498;50.880;12.096;2023-03-14T07:33:47;11.10;7.40
24374;DHT22;12498;50.880;12.096;2023-03-14T07:36:13;11.30;6.80
24374;DHT22;12498;50.880;12.096;2023-03-14T07:38:38;11.20;1.00
24374;DHT22;12498;50.880;12.096;2023-03-14T07:41:04;11.30;1.00
24374;DHT22;12498;50.880;12.096;2023-03-14T07:43:30;11.40;1.00
24374;DHT22;12498;50.880;12.096;2023-03-14T07:45:56;11.30;1.00
24374;DHT22;12498;50.880;12.096;2023-03-14T07:48:21;11.50;1.00
24374;DHT22;12498;50.880;12.096;2023-03-14T07:50:53;11.60;1.00
24374;DHT22;12498;50.880;12.096;2023-03-14T07:53:20;11.40;1.00
24374;DHT22;12498;50.880;12.096;2023-03-14T07:55:45;11.50;3.20
24374;DHT22;12498;50.880;12.096;2023-03-14T07:58:11;11.60;1.00
24374;DHT22;12498;50.880;12.096;2023-03-14T08:00:37;11.60;1.00
24374;DHT22;12498;50.880;12.096;2023-03-14T08:03:03;11.80;1.00
24374;DHT22;12498;50.880;12.096;2023-03-14T08:05:28;11.50;1.00
24374;DHT22;12498;50.880;12.096;2023-03-14T08:07:54;11.60;1.00
24374;DHT22;12498;50.880;12.096;2023-03-14T08:10:19;11.40;1.00
24374;DHT22;12498;50.880;12.096;2023-03-14T08:12:49;11.40;1.00
24374;DHT22;12498;50.880;12.096;2023-03-14T08:15:14;11.50;3.20
24374;DHT22;12498;50.880;12.096;2023-03-14T08:17:40;11.60;1.00
24374;DHT22;12498;50.880;12.096;2023-03-14T08:20:05;11.50;2.70
24374;DHT22;12498;50.880;12.096;2023-03-14T08:22:33;11.60;1.00
24374;DHT22;12498;50.880;12.096;2023-03-14T08:24:58;11.60;1.50
24374;DHT22;12498;50.880;12.096;2023-03-14T08:27:24;11.50;1.30
24374;DHT22;12498;50.880;12.096;2023-03-14T08:29:49;11.60;1.00
24374;DHT22;12498;50.880;12.096;2023-03-14T08:32:15;11.40;1.00
24374;DHT22;12498;50.880;12.096;2023-03-14T08:34:40;11.40;1.00
24374;DHT22;12498;50.880;12.096;2023-03-14T08:37:06;11.40;1.00
24374;DHT22;12498;50.880;12.096;2023-03-14T08:39:31;11.50;1.00
24374;DHT22;12498;50.880;12.096;2023-03-14T08:41:57;11.50;1.00
24374;DHT22;12498;50.880;12.096;2023-03-14T10:02:24;12.90;1.00
24374;DHT22;12498;50.880;12.096;2023-03-14T10:04:50;13.10;1.00
24374;DHT22;12498;50.880;12.096;2023-03-14T10:07:17;13.10;1.00
24374;DHT22;12498;50.880;12.096;2023-03-14T10:09:45;13.10;1.00
24374;DHT22;12498;50.880;12.096;2023-03-14T10:12:12;13.10;1.00
24374;DHT22;12498;50.880;12.096;2023-03-14T10:21:55;12.90;1.00
24374;DHT22;12498;50.880;12.096;2023-03-14T10:27:17;12.90;1.00
24374;DHT22;12498;50.880;12.096;2023-03-14T10:54:19;12.50;1.00
24374;DHT22;12498;50.880;12.096;2023-03-14T10:56:45;12.50;1.00
24374;DHT22;12498;50.880;12.096;2023-03-14T11:26:14;12.10;1.00
24374;DHT22;12498;50.880;12.096;2023-03-14T11:28:45;12.30;1.00
24374;DHT22;12498;50.880;12.096;2023-03-14T11:31:19;12.40;1.00
24374;DHT22;12498;50.880;12.096;2023-03-14T12:03:00;13.50;1.00
24374;DHT22;12498;50.880;12.096;2023-03-14T12:05:36;13.80;1.00
24374;DHT22;12498;50.880;12.096;2023-03-14T12:10:38;14.00;1.00
24374;DHT22;12498;50.880;12.096;2023-03-14T12:13:04;14.00;1.00
24374;DHT22;12498;50.880;12.096;2023-03-14T12:15:31;13.90;1.00
24374;DHT22;12498;50.880;12.096;2023-03-14T12:18:03;13.90;1.00
24374;DHT22;12498;50.880;12.096;2023-03-14T12:23:12;13.50;1.00
24374;DHT22;12498;50.880;12.096;2023-03-14T12:25:38;13.70;1.00
24374;DHT22;12498;50.880;12.096;2023-03-14T12:28:05;13.40;1.00
24374;DHT22;12498;50.880;12.096;2023-03-14T12:30:37;13.80;1.00
24374;DHT22;12498;50.880;12.096;2023-03-14T12:35:39;13.70;1.00
24374;DHT22;12498;50.880;12.096;2023-03-14T15:53:10;8.00;99.90
24374;DHT22;12498;50.880;12.096;2023-03-14T16:10:12;7.60;99.90
24374;DHT22;12498;50.880;12.096;2023-03-14T16:22:21;6.80;99.90
24374;DHT22;12498;50.880;12.096;2023-03-14T16:27:13;6.70;99.90
24374;DHT22;12498;50.880;12.096;2023-03-14T16:32:04;6.00;99.90
24374;DHT22;12498;50.880;12.096;2023-03-14T16:34:30;5.70;99.90
24374;DHT22;12498;50.880;12.096;2023-03-14T16:36:56;5.70;99.90
24374;DHT22;12498;50.880;12.096;2023-03-14T16:39:21;5.50;99.90
24374;DHT22;12498;50.880;12.096;2023-03-14T16:44:13;5.40;99.90
24374;DHT22;12498;50.880;12.096;2023-03-14T16:49:05;5.20;99.90
24374;DHT22;12498;50.880;12.096;2023-03-14T16:53:57;5.20;99.90
24374;DHT22;12498;50.880;12.096;2023-03-14T16:56:22;5.00;99.90
24374;DHT22;12498;50.880;12.096;2023-03-14T17:08:34;5.10;99.90
24374;DHT22;12498;50.880;12.096;2023-03-14T17:13:25;5.20;99.90
24374;DHT22;12498;50.880;12.096;2023-03-14T17:15:52;5.00;99.90
24374;DHT22;12498;50.880;12.096;2023-03-14T17:20:44;4.90;99.90
24374;DHT22;12498;50.880;12.096;2023-03-14T17:25:36;4.30;99.90
24374;DHT22;12498;50.880;12.096;2023-03-14T17:28:02;5.30;99.90
24374;DHT22;12498;50.880;12.096;2023-03-14T17:30:28;4.80;99.90
24374;DHT22;12498;50.880;12.096;2023-03-14T17:32:53;4.50;99.90
24374;DHT22;12498;50.880;12.096;2023-03-14T17:37:45;4.80;91.80
24374;DHT22;12498;50.880;12.096;2023-03-14T17:40:10;6.00;95.70
24374;DHT22;12498;50.880;12.096;2023-03-14T17:45:02;4.70;66.80
24374;DHT22;12498;50.880;12.096;2023-03-14T17:47:27;4.70;64.40
24374;DHT22;12498;50.880;12.096;2023-03-14T17:49:53;4.50;62.60
24374;DHT22;12498;50.880;12.096;2023-03-14T17:52:18;4.70;67.40
24374;DHT22;12498;50.880;12.096;2023-03-14T17:54:44;4.70;75.00
24374;DHT22;12498;50.880;12.096;2023-03-14T17:57:09;4.70;71.80
24374;DHT22;12498;50.880;12.096;2023-03-14T17:59:35;4.80;81.30
24374;DHT22;12498;50.880;12.096;2023-03-14T18:02:00;4.80;88.70
24374;DHT22;12498;50.880;12.096;2023-03-14T18:04:26;4.70;92.60
24374;DHT22;12498;50.880;12.096;2023-03-14T18:06:52;4.80;98.50
24374;DHT22;12498;50.880;12.096;2023-03-14T18:09:17;5.30;96.90
24374;DHT22;12498;50.880;12.096;2023-03-14T18:11:43;4.90;99.90
24374;DHT22;12498;50.880;12.096;2023-03-14T18:14:08;4.80;91.50
24374;DHT22;12498;50.880;12.096;2023-03-14T18:16:35;4.80;99.90
24374;DHT22;12498;50.880;12.096;2023-03-14T18:19:01;5.10;99.90
24374;DHT22;12498;50.880;12.096;2023-03-14T18:21:27;4.70;99.90
24374;DHT22;12498;50.880;12.096;2023-03-14T18:26:21;4.80;97.80
24374;DHT22;12498;50.880;12.096;2023-03-14T18:28:49;5.40;95.40
24374;DHT22;12498;50.880;12.096;2023-03-14T18:31:15;5.50;93.50
24374;DHT22;12498;50.880;12.096;2023-03-14T18:36:07;4.70;83.80
24374;DHT22;12498;50.880;12.096;2023-03-14T18:38:33;4.80;89.50
24374;DHT22;12498;50.880;12.096;2023-03-14T18:41:02;5.40;93.00
24374;DHT22;12498;50.880;12.096;2023-03-14T18:43:28;4.80;84.90
24374;DHT22;12498;50.880;12.096;2023-03-14T18:45:54;5.40;84.40
24374;DHT22;12498;50.880;12.096;2023-03-14T18:48:21;4.90;87.70
24374;DHT22;12498;50.880;12.096;2023-03-14T18:50:49;4.80;71.20
24374;DHT22;12498;50.880;12.096;2023-03-14T18:53:15;4.90;69.00
24374;DHT22;12498;50.880;12.096;2023-03-14T18:55:40;5.20;76.60
24374;DHT22;12498;50.880;12.096;2023-03-14T18:58:06;5.30;72.60
24374;DHT22;12498;50.880;12.096;2023-03-14T19:00:33;5.20;69.40
24374;DHT22;12498;50.880;12.096;2023-03-14T19:03:01;5.30;73.20
24374;DHT22;12498;50.880;12.096;2023-03-14T19:05:28;4.90;74.00
24374;DHT22;12498;50.880;12.096;2023-03-14T19:07:54;4.70;63.80
24374;DHT22;12498;50.880;12.096;2023-03-14T19:10:22;5.50;72.00
24374;DHT22;12498;50.880;12.096;2023-03-14T19:12:48;5.00;75.70
24374;DHT22;12498;50.880;12.096;2023-03-14T19:15:14;4.80;58.60
24374;DHT22;12498;50.880;12.096;2023-03-14T19:17:39;4.70;53.50
24374;DHT22;12498;50.880;12.096;2023-03-14T19:20:05;5.70;64.10
24374;DHT22;12498;50.880;12.096;2023-03-14T19:22:30;4.90;65.40
24374;DHT22;12498;50.880;12.096;2023-03-14T19:24:56;4.80;53.10
24374;DHT22;12498;50.880;12.096;2023-03-14T19:27:22;5.20;64.10
24374;DHT22;12498;50.880;12.096;2023-03-14T19:29:47;4.70;60.30
24374;DHT22;12498;50.880;12.096;2023-03-14T19:32:14;4.90;55.40
24374;DHT22;12498;50.880;12.096;2023-03-14T19:34:40;4.50;50.80
24374;DHT22;12498;50.880;12.096;2023-03-14T19:39:34;4.40;38.60
24374;DHT22;12498;50.880;12.096;2023-03-14T19:41:59;4.30;47.40
24374;DHT22;12498;50.880;12.096;2023-03-14T19:44:25;4.40;43.40
24374;DHT22;12498;50.880;12.096;2023-03-14T19:46:51;4.30;40.60
24374;DHT22;12498;50.880;12.096;2023-03-14T19:49:16;4.30;43.50
24374;DHT22;12498;50.880;12.096;2023-03-14T19:51:42;4.20;40.60
24374;DHT22;12498;50.880;12.096;2023-03-14T19:54:08;4.00;50.30
24374;DHT22;12498;50.880;12.096;2023-03-14T19:56:33;4.20;53.50
24374;DHT22;12498;50.880;12.096;2023-03-14T19:58:59;3.90;52.20
24374;DHT22;12498;50.880;12.096;2023-03-14T20:01:27;3.90;61.00
24374;DHT22;12498;50.880;12.096;2023-03-14T20:03:52;4.30;54.30
24374;DHT22;12498;50.880;12.096;2023-03-14T20:06:18;4.30;49.00
24374;DHT22;12498;50.880;12.096;2023-03-14T20:08:44;4.30;53.80
24374;DHT22;12498;50.880;12.096;2023-03-14T20:11:09;4.30;50.10
24374;DHT22;12498;50.880;12.096;2023-03-14T20:13:35;4.40;65.20
24374;DHT22;12498;50.880;12.096;2023-03-14T20:16:04;4.30;62.20
24374;DHT22;12498;50.880;12.096;2023-03-14T20:18:30;4.30;63.50
24374;DHT22;12498;50.880;12.096;2023-03-14T20:20:56;4.40;62.80
24374;DHT22;12498;50.880;12.096;2023-03-14T20:23:21;4.30;55.60
24374;DHT22;12498;50.880;12.096;2023-03-14T20:25:56;4.20;57.40
24374;DHT22;12498;50.880;12.096;2023-03-14T20:28:24;4.20;54.50
24374;DHT22;12498;50.880;12.096;2023-03-14T20:30:50;4.10;51.40
24374;DHT22;12498;50.880;12.096;2023-03-14T20:33:15;4.10;56.50
24374;DHT22;12498;50.880;12.096;2023-03-14T20:35:44;4.10;53.00
24374;DHT22;12498;50.880;12.096;2023-03-14T20:38:10;4.20;57.00
24374;DHT22;12498;50.880;12.096;2023-03-14T20:40:37;4.20;50.00
24374;DHT22;12498;50.880;12.096;2023-03-14T20:43:03;4.20;50.60
24374;DHT22;12498;50.880;12.096;2023-03-14T20:45:29;4.20;57.10
24374;DHT22;12498;50.880;12.096;2023-03-14T20:47:54;4.00;57.70
24374;DHT22;12498;50.880;12.096;2023-03-14T20:50:20;4.30;55.60
24374;DHT22;12498;50.880;12.096;2023-03-14T20:52:45;4.20;55.30
24374;DHT22;12498;50.880;12.096;2023-03-14T20:55:11;4.10;57.20
24374;DHT22;12498;50.880;12.096;2023-03-14T20:57:36;3.80;56.70
24374;DHT22;12498;50.880;12.096;2023-03-14T21:00:02;4.10;50.30
24374;DHT22;12498;50.880;12.096;2023-03-14T21:02:31;4.10;52.80
24374;DHT22;12498;50.880;12.096;2023-03-14T21:04:58;4.10;58.30
24374;DHT22;12498;50.880;12.096;2023-03-14T21:07:24;4.10;59.20
24374;DHT22;12498;50.880;12.096;2023-03-14T21:09:49;4.10;50.60
24374;DHT22;12498;50.880;12.096;2023-03-14T21:12:15;3.80;50.10
24374;DHT22;12498;50.880;12.096;2023-03-14T21:14:40;4.70;41.70
24374;DHT22;12498;50.880;12.096;2023-03-14T21:17:06;4.00;33.90
24374;DHT22;12498;50.880;12.096;2023-03-14T21:19:31;3.80;31.70
24374;DHT22;12498;50.880;12.096;2023-03-14T21:24:23;3.90;29.70
24374;DHT22;12498;50.880;12.096;2023-03-14T21:26:50;3.90;27.00
24374;DHT22;12498;50.880;12.096;2023-03-14T21:29:16;3.90;30.00
24374;DHT22;12498;50.880;12.096;2023-03-14T21:31:41;4.90;29.20
24374;DHT22;12498;50.880;12.096;2023-03-14T21:34:07;3.90;28.30
24374;DHT22;12498;50.880;12.096;2023-03-14T21:36:32;3.60;32.10
24374;DHT22;12498;50.880;12.096;2023-03-14T21:38:58;3.90;25.90
24374;DHT22;12498;50.880;12.096;2023-03-14T21:41:23;4.60;26.00
24374;DHT22;12498;50.880;12.096;2023-03-14T21:43:49;4.00;28.00
24374;DHT22;12498;50.880;12.096;2023-03-14T21:46:14;4.00;27.00
24374;DHT22;12498;50.880;12.096;2023-03-14T21:48:40;4.50;31.50
24374;DHT22;12498;50.880;12.096;2023-03-14T21:51:05;4.10;28.80
24374;DHT22;12498;50.880;12.096;2023-03-14T21:53:31;4.10;33.60
24374;DHT22;12498;50.880;12.096;2023-03-14T21:55:57;4.00;33.10
24374;DHT22;12498;50.880;12.096;2023-03-14T21:58:23;3.90;31.00
24374;DHT22;12498;50.880;12.096;2023-03-14T22:00:48;4.50;31.70
24374;DHT22;12498;50.880;12.096;2023-03-14T22:03:15;4.10;28.90
24374;DHT22;12498;50.880;12.096;2023-03-14T22:05:41;4.70;23.00
24374;DHT22;12498;50.880;12.096;2023-03-14T22:08:06;4.30;25.10
24374;DHT22;12498;50.880;12.096;2023-03-14T22:10:32;3.70;26.80
24374;DHT22;12498;50.880;12.096;2023-03-14T22:12:57;4.00;26.50
24374;DHT22;12498;50.880;12.096;2023-03-14T22:15:23;3.80;29.90
24374;DHT22;12498;50.880;12.096;2023-03-14T22:17:48;3.80;29.70
24374;DHT22;12498;50.880;12.096;2023-03-14T22:20:14;3.50;30.60
24374;DHT22;12498;50.880;12.096;2023-03-14T22:22:39;4.10;29.50
24374;DHT22;12498;50.880;12.096;2023-03-14T22:25:05;3.90;31.90
24374;DHT22;12498;50.880;12.096;2023-03-14T22:27:31;4.00;30.10
24374;DHT22;12498;50.880;12.096;2023-03-14T22:29:56;3.90;34.30
24374;DHT22;12498;50.880;12.096;2023-03-14T22:32:22;4.00;41.20
24374;DHT22;12498;50.880;12.096;2023-03-14T22:34:47;5.00;38.80
24374;DHT22;12498;50.880;12.096;2023-03-14T22:37:13;3.80;47.80
24374;DHT22;12498;50.880;12.096;2023-03-14T22:39:39;4.00;52.20
24374;DHT22;12498;50.880;12.096;2023-03-14T22:42:04;4.00;26.90
24374;DHT22;12498;50.880;12.096;2023-03-14T22:44:30;4.00;18.10
24374;DHT22;12498;50.880;12.096;2023-03-14T22:46:59;3.60;19.40
24374;DHT22;12498;50.880;12.096;2023-03-14T22:49:26;4.10;12.50
24374;DHT22;12498;50.880;12.096;2023-03-14T22:51:51;3.70;14.90
24374;DHT22;12498;50.880;12.096;2023-03-14T22:54:17;3.90;11.60
24374;DHT22;12498;50.880;12.096;2023-03-14T22:56:42;4.10;7.80
24374;DHT22;12498;50.880;12.096;2023-03-14T22:59:08;4.10;7.80
24374;DHT22;12498;50.880;12.096;2023-03-14T23:01:33;4.20;11.60
24374;DHT22;12498;50.880;12.096;2023-03-14T23:03:59;5.00;12.50
24374;DHT22;12498;50.880;12.096;2023-03-14T23:06:25;4.60;10.20
24374;DHT22;12498;50.880;12.096;2023-03-14T23:08:50;5.20;11.80
24374;DHT22;12498;50.880;12.096;2023-03-14T23:11:16;3.90;3.50
24374;DHT22;12498;50.880;12.096;2023-03-14T23:13:41;3.80;1.00
24374;DHT22;12498;50.880;12.096;2023-03-14T23:16:08;3.90;1.00
24374;DHT22;12498;50.880;12.096;2023-03-14T23:18:37;4.20;1.00
24374;DHT22;12498;50.880;12.096;2023-03-14T23:21:06;3.80;1.00
24374;DHT22;12498;50.880;12.096;2023-03-14T23:23:32;4.20;1.00
24374;DHT22;12498;50.880;12.096;2023-03-14T23:26:00;4.10;1.00
24374;DHT22;12498;50.880;12.096;2023-03-14T23:28:25;3.80;1.00
24374;DHT22;12498;50.880;12.096;2023-03-14T23:30:54;3.80;1.00
24374;DHT22;12498;50.880;12.096;2023-03-14T23:33:20;4.00;1.00
24374;DHT22;12498;50.880;12.096;2023-03-14T23:35:46;3.70;1.00
24374;DHT22;12498;50.880;12.096;2023-03-14T23:38:11;3.80;1.00
24374;DHT22;12498;50.880;12.096;2023-03-14T23:40:37;4.00;1.00
24374;DHT22;12498;50.880;12.096;2023-03-14T23:43:02;3.80;1.00
24374;DHT22;12498;50.880;12.096;2023-03-14T23:45:28;4.40;1.00
24374;DHT22;12498;50.880;12.096;2023-03-14T23:47:53;4.80;1.00
24374;DHT22;12498;50.880;12.096;2023-03-14T23:50:19;4.40;1.00